createdAt,value
2023-02-09T00:09:55.124Z,357
2023-02-09T00:29:55.174Z,352
2023-02-09T00:49:55.247Z,344
2023-02-09T01:09:55.279Z,358
2023-02-09T01:49:55.300Z,356
2023-02-09T02:09:55.442Z,357
2023-02-09T02:29:55.462Z,356
2023-02-09T02:49:55.702Z,358
2023-02-09T03:09:55.653Z,355
2023-02-09T03:29:55.660Z,356
2023-02-09T04:09:55.773Z,356
2023-02-09T04:49:55.869Z,352
2023-02-09T05:09:55.946Z,352
2023-02-09T05:29:56.011Z,351
2023-02-09T05:49:56.070Z,347
2023-02-09T06:10:03.100Z,350
2023-02-09T06:29:56.185Z,351
2023-02-09T06:49:56.228Z,343
2023-02-09T07:09:56.276Z,340
2023-02-09T07:29:56.356Z,346
2023-02-09T07:49:56.286Z,355
2023-02-09T08:29:56.520Z,358
2023-02-09T08:49:56.551Z,357
2023-02-09T09:09:56.618Z,359
2023-02-09T09:29:56.704Z,361
2023-02-09T09:49:56.710Z,363
2023-02-09T10:29:56.841Z,364
2023-02-09T10:49:56.853Z,363
2023-02-09T11:09:56.904Z,363
2023-02-09T11:29:56.986Z,362
2023-02-09T11:49:57.022Z,363
2023-02-09T12:09:57.076Z,360
2023-02-09T12:49:57.184Z,360
2023-02-09T13:09:57.210Z,359
2023-02-09T13:29:57.362Z,359
2023-02-09T13:49:57.299Z,359
2023-02-09T14:09:57.356Z,360
2023-02-09T14:29:57.273Z,361
2023-02-09T14:50:11.438Z,359
2023-02-09T15:09:57.568Z,357
2023-02-09T15:29:59.476Z,358
2023-02-09T15:49:57.477Z,350
2023-02-09T16:09:57.650Z,347
2023-02-09T16:29:57.541Z,343
2023-02-09T16:49:57.694Z,339
2023-02-09T17:09:57.764Z,337
2023-02-09T17:29:57.816Z,344
2023-02-09T17:49:57.890Z,341
2023-02-09T18:09:57.895Z,348
2023-02-09T18:49:58.008Z,351
2023-02-09T19:09:58.075Z,351
2023-02-09T19:29:58.127Z,352
2023-02-09T19:49:58.193Z,356
2023-02-09T20:09:58.220Z,352
2023-02-09T20:29:58.258Z,357
2023-02-09T21:09:58.344Z,352
2023-02-09T21:29:58.421Z,352
2023-02-09T21:49:58.446Z,355
2023-02-09T22:09:58.490Z,355
2023-02-09T22:29:58.556Z,355
2023-02-09T23:09:58.682Z,357
2023-02-09T23:29:58.728Z,357
2023-02-09T23:50:05.799Z,353
